Time,TemperatureF,DewpointF,PressureIn,WindDirection,WindDirectionDegrees,WindSpeedMPH,WindSpeedGustMPH,Humidity,HourlyPrecipIn,Conditions,Clouds,dailyrainin,SoftwareType,DateUTC
2013-02-25 00:01:00,29.0,29.0,29.91,North,0,0.0,0.0,100,0.58,,,8.70,,2013-02-25 05:01:00,
2013-02-25 00:11:00,29.0,29.0,29.91,North,0,0.0,0.0,100,0.58,,,8.70,,2013-02-25 05:11:00,
2013-02-25 00:22:00,29.0,29.0,29.91,North,0,0.0,0.0,100,0.58,,,8.70,,2013-02-25 05:22:00,
2013-02-25 00:32:00,29.0,29.0,29.92,North,0,0.0,0.0,100,0.58,,,8.12,,2013-02-25 05:32:00,
2013-02-25 00:42:00,29.0,29.0,29.92,North,0,0.0,0.0,100,0.58,,,8.12,,2013-02-25 05:42:00,
2013-02-25 00:52:00,29.0,29.0,29.92,North,0,0.0,0.0,100,0.87,,,8.41,,2013-02-25 05:52:00,
2013-02-25 01:02:00,29.0,29.0,29.92,North,0,0.0,0.0,100,0.58,,,8.41,,2013-02-25 06:02:00,
2013-02-25 01:11:00,29.0,29.0,29.92,North,0,0.0,0.0,100,0.58,,,8.41,,2013-02-25 06:11:00,
2013-02-25 01:21:00,29.0,29.0,29.93,North,0,0.0,0.0,100,0.58,,,8.41,,2013-02-25 06:21:00,
2013-02-25 01:32:00,29.0,29.0,29.93,North,0,0.0,0.0,100,0.29,,,8.41,,2013-02-25 06:32:00,
2013-02-25 01:42:00,29.0,29.0,29.93,North,0,0.0,0.0,100,0.29,,,8.41,,2013-02-25 06:42:00,
2013-02-25 01:51:00,29.0,29.0,29.93,North,0,0.0,0.0,100,0.29,,,8.41,,2013-02-25 06:51:00,
2013-02-25 02:01:00,29.0,29.0,29.94,North,0,0.0,0.0,100,0.00,,,8.41,,2013-02-25 07:01:00,
2013-02-25 02:11:00,29.0,29.0,29.94,North,0,0.0,0.0,100,0.00,,,8.41,,2013-02-25 07:11:00,
2013-02-25 02:21:00,29.0,29.0,29.94,North,0,0.0,0.0,100,0.00,,,8.41,,2013-02-25 07:21:00,
2013-02-25 02:32:00,29.0,29.0,29.95,North,0,0.0,0.0,100,0.00,,,8.12,,2013-02-25 07:32:00,
2013-02-25 02:42:00,29.0,29.0,29.95,North,0,0.0,0.0,100,0.00,,,8.12,,2013-02-25 07:42:00,
2013-02-25 02:52:00,29.0,29.0,29.95,North,0,0.0,0.0,100,0.00,,,8.12,,2013-02-25 07:52:00,
2013-02-25 03:01:00,29.0,29.0,29.96,North,0,0.0,0.0,100,0.00,,,7.83,,2013-02-25 08:01:00,
2013-02-25 03:11:00,29.0,29.0,29.96,North,0,0.0,0.0,100,0.00,,,7.83,,2013-02-25 08:11:00,
2013-02-25 03:21:00,29.0,29.0,29.96,North,0,0.0,0.0,100,0.00,,,7.83,,2013-02-25 08:21:00,
2013-02-25 03:32:00,29.0,29.0,29.96,North,0,0.0,0.0,100,0.00,,,7.83,,2013-02-25 08:32:00,
2013-02-25 03:42:00,29.0,29.0,29.96,North,0,0.0,0.0,100,0.00,,,7.83,,2013-02-25 08:42:00,
2013-02-25 03:52:00,29.0,29.0,29.97,North,0,0.0,0.0,100,0.00,,,7.83,,2013-02-25 08:52:00,
2013-02-25 04:02:00,29.0,29.0,29.97,North,0,0.0,0.0,100,0.00,,,7.54,,2013-02-25 09:02:00,
2013-02-25 04:12:00,29.0,29.0,29.97,North,0,0.0,0.0,100,0.00,,,7.54,,2013-02-25 09:12:00,
2013-02-25 04:21:00,29.0,29.0,29.97,North,0,0.0,0.0,100,0.00,,,7.54,,2013-02-25 09:21:00,
2013-02-25 04:32:00,29.0,29.0,29.98,North,0,0.0,0.0,100,0.00,,,7.25,,2013-02-25 09:32:00,
2013-02-25 04:42:00,29.0,29.0,29.98,North,0,0.0,0.0,100,0.00,,,7.25,,2013-02-25 09:42:00,
2013-02-25 04:52:00,29.0,29.0,29.99,North,0,0.0,0.0,100,0.00,,,7.25,,2013-02-25 09:52:00,
2013-02-25 05:01:00,29.0,29.0,29.99,North,0,0.0,0.0,100,0.00,,,6.96,,2013-02-25 10:01:00,
2013-02-25 05:11:00,29.0,29.0,30.00,North,0,0.0,0.0,100,0.00,,,6.96,,2013-02-25 10:11:00,
2013-02-25 05:21:00,29.0,29.0,30.00,North,0,0.0,0.0,100,0.00,,,6.96,,2013-02-25 10:21:00,
2013-02-25 05:32:00,29.0,29.0,30.01,North,0,0.0,0.0,100,0.00,,,6.67,,2013-02-25 10:32:00,
2013-02-25 05:42:00,29.0,29.0,30.01,North,0,0.0,0.0,100,0.00,,,6.67,,2013-02-25 10:42:00,
2013-02-25 05:52:00,29.0,29.0,30.01,North,0,0.0,0.0,100,0.00,,,6.67,,2013-02-25 10:52:00,
2013-02-25 06:01:00,29.0,29.0,30.02,North,0,0.0,0.0,100,0.00,,,6.67,,2013-02-25 11:01:00,
2013-02-25 06:11:00,29.0,29.0,30.02,North,0,0.0,0.0,100,0.00,,,6.67,,2013-02-25 11:11:00,
2013-02-25 06:22:00,29.0,29.0,30.02,North,0,0.0,0.0,100,0.00,,,6.67,,2013-02-25 11:22:00,
2013-02-25 06:32:00,29.0,29.0,30.03,North,0,0.0,0.0,100,0.00,,,6.38,,2013-02-25 11:32:00,
2013-02-25 06:42:00,29.0,29.0,30.03,North,0,0.0,0.0,100,0.00,,,6.38,,2013-02-25 11:42:00,
2013-02-25 06:52:00,29.0,29.0,30.03,North,0,0.0,0.0,100,0.00,,,6.38,,2013-02-25 11:52:00,
2013-02-25 07:02:00,28.0,28.0,30.04,North,0,0.0,0.0,100,0.00,,,6.09,,2013-02-25 12:02:00,
2013-02-25 07:11:00,28.0,28.0,30.04,North,0,0.0,0.0,100,0.00,,,6.09,,2013-02-25 12:11:00,
2013-02-25 07:22:00,28.0,28.0,30.05,North,0,0.0,0.0,100,0.00,,,6.09,,2013-02-25 12:22:00,
2013-02-25 07:32:00,28.0,28.0,30.06,North,0,0.0,0.0,100,0.00,,,5.80,,2013-02-25 12:32:00,
2013-02-25 07:42:00,28.0,28.0,30.06,North,0,0.0,0.0,100,0.00,,,5.80,,2013-02-25 12:42:00,
2013-02-25 07:54:00,28.0,28.0,30.06,North,0,0.0,0.0,100,0.00,,,5.80,,2013-02-25 12:54:00,
2013-02-25 08:02:00,29.0,29.0,30.06,North,0,0.0,0.0,100,0.00,,,5.51,,2013-02-25 13:02:00,
2013-02-25 08:12:00,29.0,29.0,30.06,North,0,0.0,0.0,100,0.00,,,5.51,,2013-02-25 13:12:00,
2013-02-25 08:22:00,29.0,29.0,30.06,North,0,0.0,0.0,100,0.00,,,5.51,,2013-02-25 13:22:00,
2013-02-25 08:32:00,30.0,30.0,30.07,North,0,0.0,0.0,100,0.00,,,5.22,,2013-02-25 13:32:00,
2013-02-25 08:42:00,30.0,30.0,30.07,North,0,0.0,0.0,100,0.00,,,5.22,,2013-02-25 13:42:00,
2013-02-25 08:52:00,30.0,30.0,30.07,North,0,0.0,0.0,100,0.00,,,5.22,,2013-02-25 13:52:00,
2013-02-25 09:03:00,31.0,31.0,30.08,North,0,0.0,0.0,100,0.00,,,4.93,,2013-02-25 14:03:00,
2013-02-25 09:17:00,31.0,31.0,30.08,North,0,0.0,0.0,100,0.00,,,4.93,,2013-02-25 14:17:00,
2013-02-25 09:32:00,32.0,32.0,30.09,North,0,0.0,0.0,100,0.29,,,4.93,,2013-02-25 14:32:00,
2013-02-25 09:42:00,32.0,32.0,30.09,North,0,0.0,0.0,100,0.29,,,4.93,,2013-02-25 14:42:00,
2013-02-25 09:52:00,32.0,32.0,30.09,North,0,0.0,0.0,100,0.29,,,4.93,,2013-02-25 14:52:00,
2013-02-25 10:03:00,33.0,33.0,30.10,North,4,0.0,0.0,100,0.87,,,5.22,,2013-02-25 15:03:00,
2013-02-25 10:11:00,33.0,33.0,30.10,North,4,0.0,0.0,100,0.87,,,5.22,,2013-02-25 15:11:00,
2013-02-25 10:22:00,33.0,33.0,30.10,North,0,0.0,0.0,100,1.45,,,5.80,,2013-02-25 15:22:00,
2013-02-25 10:32:00,33.0,33.0,30.11,North,0,0.0,0.0,100,2.32,,,6.67,,2013-02-25 15:32:00,
2013-02-25 10:42:00,33.0,33.0,30.11,North,0,0.0,0.0,100,2.32,,,6.67,,2013-02-25 15:42:00,
2013-02-25 10:51:00,34.0,34.0,30.11,North,0,0.0,0.0,100,2.32,,,6.96,,2013-02-25 15:51:00,
2013-02-25 11:02:00,34.0,34.0,30.11,North,356,0.0,0.0,100,2.90,,,7.25,,2013-02-25 16:02:00,
2013-02-25 11:12:00,34.0,34.0,30.11,North,356,0.0,0.0,100,2.90,,,7.25,,2013-02-25 16:12:00,
2013-02-25 11:22:00,34.0,34.0,30.11,North,356,3.0,5.0,100,3.48,,,7.83,,2013-02-25 16:22:00,
2013-02-25 11:32:00,35.0,35.0,30.11,North,358,2.0,5.0,100,3.19,,,8.41,,2013-02-25 16:32:00,
2013-02-25 11:42:00,35.0,35.0,30.11,North,358,2.0,5.0,100,3.19,,,8.41,,2013-02-25 16:42:00,
2013-02-25 11:51:00,35.0,35.0,30.12,North,358,3.0,5.0,100,3.77,,,8.99,,2013-02-25 16:51:00,
2013-02-25 12:02:00,36.0,36.0,30.11,North,0,0.0,5.0,100,3.19,,,9.86,,2013-02-25 17:02:00,
2013-02-25 12:11:00,36.0,36.0,30.11,North,0,0.0,5.0,100,3.19,,,9.86,,2013-02-25 17:11:00,
2013-02-25 12:21:00,36.0,36.0,30.12,NNW,341,1.0,5.0,100,3.48,,,1.01,,2013-02-25 17:21:00,
2013-02-25 12:32:00,36.0,36.0,30.12,NNW,341,3.0,4.0,100,2.90,,,1.01,,2013-02-25 17:32:00,
2013-02-25 12:42:00,36.0,36.0,30.12,NNW,341,3.0,4.0,100,2.90,,,1.01,,2013-02-25 17:42:00,
2013-02-25 12:52:00,36.0,36.0,30.11,NNW,344,3.0,4.0,100,3.48,,,1.07,,2013-02-25 17:52:00,
2013-02-25 13:02:00,37.0,37.0,30.11,North,6,2.0,4.0,100,2.32,,,1.10,,2013-02-25 18:02:00,
2013-02-25 13:12:00,37.0,37.0,30.11,North,6,2.0,4.0,100,2.32,,,1.10,,2013-02-25 18:12:00,
2013-02-25 13:21:00,37.0,37.0,30.12,North,4,3.0,4.0,100,2.61,,,1.13,,2013-02-25 18:21:00,
2013-02-25 13:33:00,37.0,37.0,30.12,North,0,2.0,3.0,100,1.74,,,1.16,,2013-02-25 18:33:00,
2013-02-25 13:51:00,37.0,37.0,30.13,North,0,2.0,3.0,100,1.74,,,1.16,,2013-02-25 18:51:00,
2013-02-25 14:01:00,37.0,37.0,30.14,North,353,3.0,6.0,100,1.16,,,1.16,,2013-02-25 19:01:00,
2013-02-25 14:21:00,38.0,38.0,30.14,WNW,292,3.0,6.0,100,1.45,,,1.18,,2013-02-25 19:21:00,
2013-02-25 14:32:00,38.0,38.0,30.15,West,264,3.0,6.0,100,0.87,,,1.16,,2013-02-25 19:32:00,
2013-02-25 14:52:00,38.0,38.0,30.15,WNW,301,2.0,6.0,100,0.87,,,1.16,,2013-02-25 19:52:00,
2013-02-25 15:01:00,38.0,38.0,30.15,West,272,2.0,4.0,99,0.29,,,1.16,,2013-02-25 20:01:00,
2013-02-25 15:21:00,38.0,37.0,30.15,NNW,335,3.0,4.0,98,0.29,,,1.16,,2013-02-25 20:21:00,
2013-02-25 15:32:00,38.0,38.0,30.16,NW,321,2.0,5.0,99,0.00,,,1.16,,2013-02-25 20:32:00,
2013-02-25 15:52:00,38.0,38.0,30.17,NW,309,2.0,5.0,99,0.00,,,1.16,,2013-02-25 20:52:00,
2013-02-25 16:02:00,38.0,38.0,30.17,NW,308,1.0,3.0,100,0.00,,,1.13,,2013-02-25 21:02:00,
2013-02-25 16:21:00,38.0,38.0,30.18,NW,308,2.0,3.0,100,0.00,,,1.13,,2013-02-25 21:21:00,
2013-02-25 16:32:00,38.0,38.0,30.17,NW,308,1.0,3.0,100,0.00,,,1.13,,2013-02-25 21:32:00,
2013-02-25 16:51:00,37.0,37.0,30.18,NW,308,1.0,3.0,100,0.00,,,1.13,,2013-02-25 21:51:00,
2013-02-25 17:01:00,37.0,37.0,30.18,NW,308,0.0,3.0,100,0.00,,,1.10,,2013-02-25 22:01:00,
2013-02-25 17:11:00,37.0,37.0,30.18,NW,308,0.0,3.0,100,0.00,,,1.10,,2013-02-25 22:11:00,
2013-02-25 17:21:00,37.0,37.0,30.18,NW,308,1.0,3.0,100,0.00,,,1.10,,2013-02-25 22:21:00,
2013-02-25 17:32:00,36.0,36.0,30.18,NW,308,1.0,1.0,100,0.00,,,1.10,,2013-02-25 22:32:00,
2013-02-25 17:42:00,36.0,36.0,30.18,NW,308,1.0,1.0,100,0.00,,,1.10,,2013-02-25 22:42:00,
2013-02-25 17:51:00,36.0,36.0,30.18,NW,308,1.0,1.0,100,0.00,,,1.10,,2013-02-25 22:51:00,
2013-02-25 18:01:00,36.0,36.0,30.19,NW,308,0.0,2.0,100,0.00,,,1.10,,2013-02-25 23:01:00,
2013-02-25 18:11:00,36.0,36.0,30.19,NW,308,0.0,2.0,100,0.00,,,1.10,,2013-02-25 23:11:00,
2013-02-25 18:22:00,36.0,36.0,30.19,NW,308,0.0,2.0,100,0.00,,,1.10,,2013-02-25 23:22:00,
2013-02-25 18:32:00,35.0,35.0,30.19,NW,308,1.0,2.0,100,0.00,,,1.07,,2013-02-25 23:32:00,
2013-02-25 18:42:00,35.0,35.0,30.19,NW,308,1.0,2.0,100,0.00,,,1.07,,2013-02-25 23:42:00,
2013-02-25 18:52:00,35.0,35.0,30.19,NW,308,0.0,2.0,100,0.00,,,1.07,,2013-02-25 23:52:00,
2013-02-25 19:02:00,35.0,35.0,30.19,NW,308,0.0,2.0,100,0.00,,,1.07,,2013-02-26 00:02:00,
2013-02-25 19:12:00,35.0,35.0,30.19,NW,308,0.0,2.0,100,0.00,,,1.07,,2013-02-26 00:12:00,
2013-02-25 19:22:00,35.0,35.0,30.19,NW,308,0.0,2.0,100,0.00,,,1.07,,2013-02-26 00:22:00,
2013-02-25 19:32:00,34.0,34.0,30.21,NW,308,0.0,1.0,100,0.00,,,1.04,,2013-02-26 00:32:00,
2013-02-25 19:42:00,34.0,34.0,30.21,NW,308,0.0,1.0,100,0.00,,,1.04,,2013-02-26 00:42:00,
2013-02-25 19:52:00,33.0,33.0,30.22,NW,308,0.0,1.0,100,0.00,,,1.04,,2013-02-26 00:52:00,
2013-02-25 20:02:00,32.0,32.0,30.23,NW,308,0.0,0.0,100,0.00,,,1.04,,2013-02-26 01:02:00,
2013-02-25 20:11:00,32.0,32.0,30.23,NW,308,0.0,0.0,100,0.00,,,1.04,,2013-02-26 01:11:00,
2013-02-25 20:21:00,32.0,32.0,30.23,NW,308,0.0,0.0,100,0.00,,,1.04,,2013-02-26 01:21:00,
2013-02-25 20:32:00,31.0,31.0,30.24,NW,308,0.0,0.0,100,0.00,,,1.04,,2013-02-26 01:32:00,
2013-02-25 20:42:00,31.0,31.0,30.24,NW,308,0.0,0.0,100,0.00,,,1.04,,2013-02-26 01:42:00,
2013-02-25 20:51:00,31.0,31.0,30.24,NW,308,0.0,0.0,100,0.00,,,1.04,,2013-02-26 01:51:00,
2013-02-25 21:01:00,31.0,31.0,30.24,NW,308,0.0,0.0,100,0.00,,,1.01,,2013-02-26 02:01:00,
2013-02-25 21:11:00,31.0,31.0,30.24,NW,308,0.0,0.0,100,0.00,,,1.01,,2013-02-26 02:11:00,
2013-02-25 21:21:00,31.0,31.0,30.23,NW,308,0.0,0.0,100,0.00,,,1.01,,2013-02-26 02:21:00,
2013-02-25 21:32:00,31.0,31.0,30.23,NW,308,0.0,0.0,100,0.00,,,1.01,,2013-02-26 02:32:00,
2013-02-25 21:42:00,31.0,31.0,30.23,NW,308,0.0,0.0,100,0.00,,,1.01,,2013-02-26 02:42:00,
2013-02-25 21:52:00,31.0,31.0,30.24,NW,308,1.0,1.0,100,0.00,,,1.01,,2013-02-26 02:52:00,
2013-02-25 22:02:00,30.0,30.0,30.24,NW,308,0.0,1.0,100,0.00,,,1.01,,2013-02-26 03:02:00,
2013-02-25 22:11:00,30.0,30.0,30.24,NW,308,0.0,1.0,100,0.00,,,1.01,,2013-02-26 03:11:00,
2013-02-25 22:22:00,30.0,30.0,30.23,NW,308,0.0,1.0,100,0.00,,,1.01,,2013-02-26 03:22:00,
2013-02-25 22:32:00,29.0,29.0,30.24,NW,308,0.0,0.0,100,0.00,,,1.01,,2013-02-26 03:32:00,
2013-02-25 22:42:00,29.0,29.0,30.24,NW,308,0.0,0.0,100,0.00,,,1.01,,2013-02-26 03:42:00,
2013-02-25 22:52:00,29.0,29.0,30.24,NW,308,0.0,0.0,100,0.00,,,1.01,,2013-02-26 03:52:00,
2013-02-25 23:02:00,29.0,29.0,30.24,NW,308,0.0,0.0,100,0.00,,,9.86,,2013-02-26 04:02:00,
2013-02-25 23:11:00,29.0,29.0,30.24,NW,308,0.0,0.0,100,0.00,,,9.86,,2013-02-26 04:11:00,
2013-02-25 23:22:00,28.0,28.0,30.23,NW,308,0.0,0.0,100,0.00,,,9.86,,2013-02-26 04:22:00,
2013-02-25 23:32:00,28.0,28.0,30.24,NW,308,0.0,0.0,100,0.00,,,9.86,,2013-02-26 04:32:00,
2013-02-25 23:42:00,28.0,28.0,30.24,NW,308,0.0,0.0,100,0.00,,,9.86,,2013-02-26 04:42:00,
2013-02-25 23:52:00,28.0,28.0,30.25,NW,308,0.0,1.0,100,0.00,,,9.86,,2013-02-26 04:52:00,